sensor_id;sensor_type;location;lat;lon;timestamp;P1;durP1;ratioP1;P2;durP2;ratioP2
10479;SDS011;12789;42.610;23.040;2023-02-15T00:01:40;34.40;;;23.03;;
10479;SDS011;12789;42.610;23.040;2023-02-15T00:04:07;38.30;;;23.37;;
10479;SDS011;12789;42.610;23.040;2023-02-15T00:06:33;34.97;;;23.27;;
10479;SDS011;12789;42.610;23.040;2023-02-15T00:09:00;35.70;;;23.60;;
10479;SDS011;12789;42.610;23.040;2023-02-15T00:11:27;34.30;;;21.80;;
10479;SDS011;12789;42.610;23.040;2023-02-15T00:14:17;36.27;;;22.73;;
10479;SDS011;12789;42.610;23.040;2023-02-15T00:16:44;33.17;;;21.90;;
10479;SDS011;12789;42.610;23.040;2023-02-15T00:19:11;31.77;;;21.50;;
10479;SDS011;12789;42.610;23.040;2023-02-15T00:21:38;32.73;;;21.93;;
10479;SDS011;12789;42.610;23.040;2023-02-15T00:24:06;33.87;;;23.50;;
10479;SDS011;12789;42.610;23.040;2023-02-15T00:26:33;34.80;;;22.20;;
10479;SDS011;12789;42.610;23.040;2023-02-15T00:28:59;34.87;;;22.60;;
10479;SDS011;12789;42.610;23.040;2023-02-15T00:31:28;37.83;;;23.57;;
10479;SDS011;12789;42.610;23.040;2023-02-15T00:33:55;31.77;;;21.87;;
10479;SDS011;12789;42.610;23.040;2023-02-15T00:36:22;34.67;;;22.83;;
10479;SDS011;12789;42.610;23.040;2023-02-15T00:38:48;37.20;;;23.53;;
10479;SDS011;12789;42.610;23.040;2023-02-15T00:41:15;40.30;;;24.80;;
10479;SDS011;12789;42.610;23.040;2023-02-15T00:43:41;40.80;;;26.17;;
10479;SDS011;12789;42.610;23.040;2023-02-15T00:46:08;38.33;;;25.07;;
10479;SDS011;12789;42.610;23.040;2023-02-15T00:48:36;35.63;;;23.63;;
10479;SDS011;12789;42.610;23.040;2023-02-15T00:51:02;31.07;;;21.50;;
10479;SDS011;12789;42.610;23.040;2023-02-15T00:53:29;29.27;;;21.23;;
10479;SDS011;12789;42.610;23.040;2023-02-15T00:55:55;32.80;;;21.60;;
10479;SDS011;12789;42.610;23.040;2023-02-15T00:58:24;37.50;;;24.17;;
10479;SDS011;12789;42.610;23.040;2023-02-15T01:00:50;39.87;;;25.83;;
10479;SDS011;12789;42.610;23.040;2023-02-15T01:03:17;44.37;;;27.67;;
10479;SDS011;12789;42.610;23.040;2023-02-15T01:05:46;37.30;;;25.27;;
10479;SDS011;12789;42.610;23.040;2023-02-15T01:08:13;39.50;;;26.00;;
10479;SDS011;12789;42.610;23.040;2023-02-15T01:10:40;39.30;;;24.83;;
10479;SDS011;12789;42.610;23.040;2023-02-15T01:13:10;35.20;;;23.60;;
10479;SDS011;12789;42.610;23.040;2023-02-15T01:15:37;32.13;;;21.00;;
10479;SDS011;12789;42.610;23.040;2023-02-15T01:18:04;30.70;;;20.50;;
10479;SDS011;12789;42.610;23.040;2023-02-15T01:20:33;34.13;;;21.20;;
10479;SDS011;12789;42.610;23.040;2023-02-15T01:23:02;28.43;;;19.97;;
10479;SDS011;12789;42.610;23.040;2023-02-15T01:25:28;32.00;;;21.27;;
10479;SDS011;12789;42.610;23.040;2023-02-15T01:27:55;31.63;;;20.80;;
10479;SDS011;12789;42.610;23.040;2023-02-15T01:30:21;32.30;;;21.23;;
10479;SDS011;12789;42.610;23.040;2023-02-15T01:32:48;27.97;;;20.13;;
10479;SDS011;12789;42.610;23.040;2023-02-15T01:35:15;32.30;;;21.03;;
10479;SDS011;12789;42.610;23.040;2023-02-15T01:37:41;30.17;;;20.47;;
10479;SDS011;12789;42.610;23.040;2023-02-15T01:40:11;32.93;;;21.60;;
10479;SDS011;12789;42.610;23.040;2023-02-15T01:42:38;32.23;;;20.93;;
10479;SDS011;12789;42.610;23.040;2023-02-15T01:45:05;33.70;;;22.40;;
10479;SDS011;12789;42.610;23.040;2023-02-15T01:47:44;37.03;;;23.10;;
10479;SDS011;12789;42.610;23.040;2023-02-15T01:50:12;34.07;;;23.53;;
10479;SDS011;12789;42.610;23.040;2023-02-15T01:52:42;32.77;;;23.27;;
10479;SDS011;12789;42.610;23.040;2023-02-15T01:55:10;37.87;;;22.77;;
10479;SDS011;12789;42.610;23.040;2023-02-15T01:57:37;34.50;;;23.77;;
10479;SDS011;12789;42.610;23.040;2023-02-15T02:00:07;35.10;;;23.77;;
10479;SDS011;12789;42.610;23.040;2023-02-15T02:02:34;36.20;;;23.87;;
10479;SDS011;12789;42.610;23.040;2023-02-15T02:05:02;34.43;;;22.47;;
10479;SDS011;12789;42.610;23.040;2023-02-15T02:07:32;36.03;;;23.10;;
10479;SDS011;12789;42.610;23.040;2023-02-15T02:09:59;35.53;;;22.97;;
10479;SDS011;12789;42.610;23.040;2023-02-15T02:12:27;35.40;;;22.53;;
10479;SDS011;12789;42.610;23.040;2023-02-15T02:14:54;37.43;;;23.97;;
10479;SDS011;12789;42.610;23.040;2023-02-15T02:17:22;35.47;;;23.83;;
10479;SDS011;12789;42.610;23.040;2023-02-15T02:28:52;36.40;;;22.63;;
10479;SDS011;12789;42.610;23.040;2023-02-15T02:31:32;34.30;;;20.43;;
10479;SDS011;12789;42.610;23.040;2023-02-15T02:34:05;34.87;;;22.67;;
10479;SDS011;12789;42.610;23.040;2023-02-15T02:36:35;32.43;;;21.87;;
10479;SDS011;12789;42.610;23.040;2023-02-15T02:39:09;39.30;;;23.93;;
10479;SDS011;12789;42.610;23.040;2023-02-15T02:41:42;45.93;;;25.80;;
10479;SDS011;12789;42.610;23.040;2023-02-15T02:44:11;42.67;;;25.10;;
10479;SDS011;12789;42.610;23.040;2023-02-15T02:46:42;43.10;;;25.17;;
10479;SDS011;12789;42.610;23.040;2023-02-15T02:49:11;49.27;;;26.90;;
10479;SDS011;12789;42.610;23.040;2023-02-15T02:51:37;42.67;;;25.10;;
10479;SDS011;12789;42.610;23.040;2023-02-15T02:54:04;41.03;;;24.60;;
10479;SDS011;12789;42.610;23.040;2023-02-15T02:56:33;39.93;;;24.67;;
10479;SDS011;12789;42.610;23.040;2023-02-15T02:59:01;39.90;;;23.87;;
10479;SDS011;12789;42.610;23.040;2023-02-15T03:01:29;33.70;;;22.40;;
10479;SDS011;12789;42.610;23.040;2023-02-15T03:03:58;39.37;;;24.10;;
10479;SDS011;12789;42.610;23.040;2023-02-15T03:06:29;35.07;;;23.30;;
10479;SDS011;12789;42.610;23.040;2023-02-15T03:08:58;33.57;;;21.57;;
10479;SDS011;12789;42.610;23.040;2023-02-15T03:11:27;35.90;;;20.83;;
10479;SDS011;12789;42.610;23.040;2023-02-15T03:13:54;27.97;;;19.13;;
10479;SDS011;12789;42.610;23.040;2023-02-15T03:16:20;29.77;;;19.30;;
10479;SDS011;12789;42.610;23.040;2023-02-15T03:18:54;32.30;;;21.20;;
10479;SDS011;12789;42.610;23.040;2023-02-15T03:21:24;35.33;;;21.00;;
10479;SDS011;12789;42.610;23.040;2023-02-15T03:23:54;31.00;;;20.87;;
10479;SDS011;12789;42.610;23.040;2023-02-15T03:26:21;29.53;;;21.07;;
10479;SDS011;12789;42.610;23.040;2023-02-15T03:28:49;36.13;;;22.97;;
10479;SDS011;12789;42.610;23.040;2023-02-15T03:31:16;33.87;;;21.40;;
10479;SDS011;12789;42.610;23.040;2023-02-15T03:33:45;34.83;;;21.57;;
10479;SDS011;12789;42.610;23.040;2023-02-15T03:36:15;31.53;;;19.90;;
10479;SDS011;12789;42.610;23.040;2023-02-15T03:38:46;29.77;;;20.27;;
10479;SDS011;12789;42.610;23.040;2023-02-15T03:41:16;30.87;;;19.47;;
10479;SDS011;12789;42.610;23.040;2023-02-15T03:43:45;33.03;;;21.63;;
10479;SDS011;12789;42.610;23.040;2023-02-15T03:46:15;31.73;;;21.50;;
10479;SDS011;12789;42.610;23.040;2023-02-15T03:48:44;29.00;;;20.67;;
10479;SDS011;12789;42.610;23.040;2023-02-15T03:51:12;34.53;;;21.10;;
10479;SDS011;12789;42.610;23.040;2023-02-15T03:53:59;28.93;;;20.43;;
10479;SDS011;12789;42.610;23.040;2023-02-15T03:56:29;38.50;;;22.17;;
10479;SDS011;12789;42.610;23.040;2023-02-15T03:58:55;32.73;;;21.20;;
10479;SDS011;12789;42.610;23.040;2023-02-15T04:01:40;31.70;;;21.47;;
10479;SDS011;12789;42.610;23.040;2023-02-15T04:04:24;29.03;;;20.80;;
10479;SDS011;12789;42.610;23.040;2023-02-15T04:06:51;30.43;;;21.50;;
10479;SDS011;12789;42.610;23.040;2023-02-15T04:09:17;35.37;;;22.50;;
10479;SDS011;12789;42.610;23.040;2023-02-15T04:12:03;81.93;;;36.30;;
10479;SDS011;12789;42.610;23.040;2023-02-15T04:14:29;78.77;;;35.77;;
10479;SDS011;12789;42.610;23.040;2023-02-15T04:17:13;173.97;;;63.07;;
10479;SDS011;12789;42.610;23.040;2023-02-15T04:19:40;439.40;;;150.30;;
10479;SDS011;12789;42.610;23.040;2023-02-15T04:22:23;848.77;;;306.93;;
10479;SDS011;12789;42.610;23.040;2023-02-15T04:25:07;521.50;;;164.43;;
10479;SDS011;12789;42.610;23.040;2023-02-15T04:27:39;333.90;;;106.63;;
10479;SDS011;12789;42.610;23.040;2023-02-15T04:30:06;276.07;;;90.07;;
10479;SDS011;12789;42.610;23.040;2023-02-15T04:32:32;167.17;;;58.30;;
10479;SDS011;12789;42.610;23.040;2023-02-15T04:34:59;107.63;;;42.00;;
10479;SDS011;12789;42.610;23.040;2023-02-15T04:37:26;146.30;;;50.17;;
10479;SDS011;12789;42.610;23.040;2023-02-15T04:39:52;103.47;;;40.93;;
10479;SDS011;12789;42.610;23.040;2023-02-15T04:42:20;67.17;;;32.33;;
10479;SDS011;12789;42.610;23.040;2023-02-15T04:44:48;47.87;;;26.47;;
10479;SDS011;12789;42.610;23.040;2023-02-15T04:47:14;41.53;;;24.63;;
10479;SDS011;12789;42.610;23.040;2023-02-15T04:49:41;35.10;;;21.67;;
10479;SDS011;12789;42.610;23.040;2023-02-15T04:52:10;34.63;;;20.57;;
10479;SDS011;12789;42.610;23.040;2023-02-15T04:54:36;34.50;;;21.70;;
10479;SDS011;12789;42.610;23.040;2023-02-15T04:57:03;34.90;;;22.40;;
10479;SDS011;12789;42.610;23.040;2023-02-15T04:59:29;32.60;;;21.10;;
10479;SDS011;12789;42.610;23.040;2023-02-15T05:01:57;39.00;;;24.30;;
10479;SDS011;12789;42.610;23.040;2023-02-15T05:04:24;52.40;;;29.87;;
10479;SDS011;12789;42.610;23.040;2023-02-15T05:06:50;40.77;;;23.80;;
10479;SDS011;12789;42.610;23.040;2023-02-15T05:09:19;45.20;;;26.50;;
10479;SDS011;12789;42.610;23.040;2023-02-15T05:11:46;39.57;;;25.30;;
10479;SDS011;12789;42.610;23.040;2023-02-15T05:14:12;39.07;;;25.47;;
10479;SDS011;12789;42.610;23.040;2023-02-15T05:16:39;44.53;;;26.77;;
10479;SDS011;12789;42.610;23.040;2023-02-15T05:19:08;51.63;;;29.17;;
10479;SDS011;12789;42.610;23.040;2023-02-15T05:21:34;47.03;;;27.70;;
10479;SDS011;12789;42.610;23.040;2023-02-15T05:24:01;35.17;;;24.67;;
10479;SDS011;12789;42.610;23.040;2023-02-15T05:26:47;34.83;;;20.87;;
10479;SDS011;12789;42.610;23.040;2023-02-15T05:29:31;46.27;;;25.83;;
10479;SDS011;12789;42.610;23.040;2023-02-15T05:31:58;56.77;;;27.67;;
10479;SDS011;12789;42.610;23.040;2023-02-15T05:34:26;51.33;;;29.03;;
10479;SDS011;12789;42.610;23.040;2023-02-15T05:36:52;51.40;;;27.53;;
10479;SDS011;12789;42.610;23.040;2023-02-15T05:39:19;67.20;;;29.07;;
10479;SDS011;12789;42.610;23.040;2023-02-15T05:41:45;38.33;;;23.90;;
10479;SDS011;12789;42.610;23.040;2023-02-15T05:44:12;33.93;;;22.20;;
10479;SDS011;12789;42.610;23.040;2023-02-15T05:46:38;41.97;;;26.00;;
10479;SDS011;12789;42.610;23.040;2023-02-15T05:49:05;52.03;;;30.03;;
10479;SDS011;12789;42.610;23.040;2023-02-15T05:51:32;54.53;;;30.23;;
10479;SDS011;12789;42.610;23.040;2023-02-15T05:53:59;54.67;;;31.70;;
10479;SDS011;12789;42.610;23.040;2023-02-15T05:56:25;54.90;;;32.47;;
10479;SDS011;12789;42.610;23.040;2023-02-15T05:58:52;55.10;;;32.53;;
10479;SDS011;12789;42.610;23.040;2023-02-15T06:01:19;49.53;;;30.00;;
10479;SDS011;12789;42.610;23.040;2023-02-15T06:03:47;48.13;;;27.97;;
10479;SDS011;12789;42.610;23.040;2023-02-15T06:06:14;45.10;;;30.37;;
10479;SDS011;12789;42.610;23.040;2023-02-15T06:08:41;46.97;;;30.73;;
10479;SDS011;12789;42.610;23.040;2023-02-15T06:11:08;38.73;;;23.97;;
10479;SDS011;12789;42.610;23.040;2023-02-15T06:13:35;45.27;;;28.63;;
10479;SDS011;12789;42.610;23.040;2023-02-15T06:16:01;43.50;;;26.77;;
10479;SDS011;12789;42.610;23.040;2023-02-15T06:18:28;40.97;;;25.60;;
10479;SDS011;12789;42.610;23.040;2023-02-15T06:20:54;37.17;;;23.30;;
10479;SDS011;12789;42.610;23.040;2023-02-15T06:23:21;36.03;;;23.90;;
10479;SDS011;12789;42.610;23.040;2023-02-15T06:25:49;58.03;;;35.07;;
10479;SDS011;12789;42.610;23.040;2023-02-15T06:28:15;91.90;;;52.40;;
10479;SDS011;12789;42.610;23.040;2023-02-15T06:30:42;45.67;;;28.87;;
10479;SDS011;12789;42.610;23.040;2023-02-15T06:33:08;85.70;;;51.27;;
10479;SDS011;12789;42.610;23.040;2023-02-15T06:35:35;63.03;;;40.00;;
10479;SDS011;12789;42.610;23.040;2023-02-15T06:38:01;77.77;;;46.33;;
10479;SDS011;12789;42.610;23.040;2023-02-15T06:40:28;50.53;;;31.47;;
10479;SDS011;12789;42.610;23.040;2023-02-15T06:42:56;56.40;;;35.10;;
10479;SDS011;12789;42.610;23.040;2023-02-15T06:45:22;50.40;;;31.23;;
10479;SDS011;12789;42.610;23.040;2023-02-15T06:47:49;48.13;;;30.97;;
10479;SDS011;12789;42.610;23.040;2023-02-15T06:50:15;45.53;;;28.47;;
10479;SDS011;12789;42.610;23.040;2023-02-15T06:52:42;52.17;;;33.57;;
10479;SDS011;12789;42.610;23.040;2023-02-15T06:55:08;42.37;;;27.33;;
10479;SDS011;12789;42.610;23.040;2023-02-15T06:57:35;54.57;;;31.07;;
10479;SDS011;12789;42.610;23.040;2023-02-15T07:00:03;40.90;;;25.67;;
10479;SDS011;12789;42.610;23.040;2023-02-15T07:02:31;39.47;;;25.23;;
10479;SDS011;12789;42.610;23.040;2023-02-15T07:04:57;42.77;;;27.80;;
10479;SDS011;12789;42.610;23.040;2023-02-15T07:07:26;44.30;;;27.13;;
10479;SDS011;12789;42.610;23.040;2023-02-15T07:09:53;41.27;;;27.33;;
10479;SDS011;12789;42.610;23.040;2023-02-15T07:12:19;32.90;;;22.27;;
10479;SDS011;12789;42.610;23.040;2023-02-15T07:15:05;34.80;;;22.90;;
10479;SDS011;12789;42.610;23.040;2023-02-15T07:17:32;36.73;;;24.40;;
10479;SDS011;12789;42.610;23.040;2023-02-15T07:19:59;34.30;;;23.07;;
10479;SDS011;12789;42.610;23.040;2023-02-15T07:22:25;29.17;;;20.90;;
10479;SDS011;12789;42.610;23.040;2023-02-15T07:24:52;33.23;;;22.10;;
10479;SDS011;12789;42.610;23.040;2023-02-15T07:27:19;30.47;;;19.77;;
10479;SDS011;12789;42.610;23.040;2023-02-15T07:29:46;36.87;;;25.10;;
10479;SDS011;12789;42.610;23.040;2023-02-15T07:32:14;33.27;;;21.20;;
10479;SDS011;12789;42.610;23.040;2023-02-15T07:34:40;32.27;;;22.73;;
10479;SDS011;12789;42.610;23.040;2023-02-15T07:37:07;28.40;;;19.43;;
10479;SDS011;12789;42.610;23.040;2023-02-15T07:39:33;24.97;;;18.07;;
10479;SDS011;12789;42.610;23.040;2023-02-15T07:42:00;23.70;;;17.20;;
10479;SDS011;12789;42.610;23.040;2023-02-15T07:44:26;23.80;;;18.07;;
10479;SDS011;12789;42.610;23.040;2023-02-15T07:46:53;24.93;;;17.07;;
10479;SDS011;12789;42.610;23.040;2023-02-15T07:49:21;20.63;;;16.47;;
10479;SDS011;12789;42.610;23.040;2023-02-15T07:51:48;22.33;;;17.17;;
10479;SDS011;12789;42.610;23.040;2023-02-15T07:54:14;24.87;;;17.37;;
10479;SDS011;12789;42.610;23.040;2023-02-15T07:56:41;23.93;;;17.37;;
10479;SDS011;12789;42.610;23.040;2023-02-15T07:59:08;25.63;;;17.90;;
10479;SDS011;12789;42.610;23.040;2023-02-15T08:01:35;23.17;;;17.77;;
10479;SDS011;12789;42.610;23.040;2023-02-15T08:04:02;21.90;;;16.83;;
10479;SDS011;12789;42.610;23.040;2023-02-15T08:06:31;26.53;;;18.23;;
10479;SDS011;12789;42.610;23.040;2023-02-15T08:08:58;22.17;;;16.57;;
10479;SDS011;12789;42.610;23.040;2023-02-15T08:11:26;25.37;;;18.80;;
10479;SDS011;12789;42.610;23.040;2023-02-15T08:13:58;27.90;;;18.37;;
10479;SDS011;12789;42.610;23.040;2023-02-15T08:16:26;22.83;;;17.17;;
10479;SDS011;12789;42.610;23.040;2023-02-15T08:18:53;19.90;;;15.53;;
10479;SDS011;12789;42.610;23.040;2023-02-15T08:21:20;22.53;;;15.77;;
10479;SDS011;12789;42.610;23.040;2023-02-15T08:23:48;21.93;;;14.57;;
10479;SDS011;12789;42.610;23.040;2023-02-15T08:26:14;18.57;;;13.33;;
10479;SDS011;12789;42.610;23.040;2023-02-15T08:28:42;20.67;;;14.40;;
10479;SDS011;12789;42.610;23.040;2023-02-15T08:31:09;23.00;;;15.47;;
10479;SDS011;12789;42.610;23.040;2023-02-15T08:33:36;20.03;;;13.67;;
10479;SDS011;12789;42.610;23.040;2023-02-15T08:36:04;20.70;;;14.27;;
10479;SDS011;12789;42.610;23.040;2023-02-15T08:38:30;24.50;;;16.17;;
10479;SDS011;12789;42.610;23.040;2023-02-15T08:40:58;22.57;;;15.57;;
10479;SDS011;12789;42.610;23.040;2023-02-15T08:43:34;26.70;;;15.90;;
10479;SDS011;12789;42.610;23.040;2023-02-15T08:46:01;23.40;;;15.93;;
10479;SDS011;12789;42.610;23.040;2023-02-15T08:48:27;21.53;;;15.40;;
10479;SDS011;12789;42.610;23.040;2023-02-15T08:50:54;31.83;;;21.50;;
10479;SDS011;12789;42.610;23.040;2023-02-15T08:53:20;48.63;;;31.47;;
10479;SDS011;12789;42.610;23.040;2023-02-15T08:55:47;35.73;;;23.47;;
10479;SDS011;12789;42.610;23.040;2023-02-15T08:58:17;23.97;;;16.73;;
10479;SDS011;12789;42.610;23.040;2023-02-15T09:00:44;49.57;;;31.93;;
10479;SDS011;12789;42.610;23.040;2023-02-15T09:03:10;42.67;;;24.00;;
10479;SDS011;12789;42.610;23.040;2023-02-15T09:05:37;79.13;;;47.93;;
10479;SDS011;12789;42.610;23.040;2023-02-15T09:08:04;46.43;;;30.03;;
10479;SDS011;12789;42.610;23.040;2023-02-15T09:10:30;67.63;;;39.93;;
10479;SDS011;12789;42.610;23.040;2023-02-15T09:15:33;23.47;;;16.10;;
10479;SDS011;12789;42.610;23.040;2023-02-15T09:18:01;38.17;;;26.80;;
10479;SDS011;12789;42.610;23.040;2023-02-15T09:20:33;24.87;;;17.03;;
10479;SDS011;12789;42.610;23.040;2023-02-15T09:23:01;26.73;;;18.50;;
10479;SDS011;12789;42.610;23.040;2023-02-15T09:25:30;23.90;;;16.93;;
10479;SDS011;12789;42.610;23.040;2023-02-15T09:27:58;27.30;;;18.27;;
10479;SDS011;12789;42.610;23.040;2023-02-15T09:30:25;26.03;;;18.97;;
10479;SDS011;12789;42.610;23.040;2023-02-15T09:32:53;27.53;;;17.00;;
10479;SDS011;12789;42.610;23.040;2023-02-15T09:35:19;26.73;;;17.47;;
10479;SDS011;12789;42.610;23.040;2023-02-15T09:37:46;22.07;;;16.70;;
10479;SDS011;12789;42.610;23.040;2023-02-15T09:40:12;29.47;;;20.13;;
10479;SDS011;12789;42.610;23.040;2023-02-15T09:42:54;30.07;;;20.07;;
10479;SDS011;12789;42.610;23.040;2023-02-15T09:45:30;21.03;;;15.30;;
10479;SDS011;12789;42.610;23.040;2023-02-15T09:50:50;33.90;;;22.00;;
10479;SDS011;12789;42.610;23.040;2023-02-15T09:53:23;23.70;;;17.27;;
10479;SDS011;12789;42.610;23.040;2023-02-15T09:55:55;23.50;;;15.83;;
10479;SDS011;12789;42.610;23.040;2023-02-15T09:58:26;23.80;;;16.60;;
10479;SDS011;12789;42.610;23.040;2023-02-15T10:00:56;21.63;;;16.03;;
10479;SDS011;12789;42.610;23.040;2023-02-15T10:06:08;25.23;;;18.23;;
10479;SDS011;12789;42.610;23.040;2023-02-15T10:08:47;19.33;;;13.70;;
10479;SDS011;12789;42.610;23.040;2023-02-15T10:11:20;25.40;;;15.53;;
10479;SDS011;12789;42.610;23.040;2023-02-15T10:14:12;21.77;;;15.80;;
10479;SDS011;12789;42.610;23.040;2023-02-15T10:16:41;20.17;;;15.07;;
10479;SDS011;12789;42.610;23.040;2023-02-15T10:19:10;20.93;;;16.30;;
10479;SDS011;12789;42.610;23.040;2023-02-15T10:21:46;21.30;;;15.37;;
10479;SDS011;12789;42.610;23.040;2023-02-15T10:24:21;20.13;;;15.20;;
10479;SDS011;12789;42.610;23.040;2023-02-15T10:26:50;19.13;;;14.37;;
10479;SDS011;12789;42.610;23.040;2023-02-15T10:29:20;25.23;;;16.77;;
10479;SDS011;12789;42.610;23.040;2023-02-15T10:31:49;22.73;;;16.03;;
10479;SDS011;12789;42.610;23.040;2023-02-15T10:34:21;17.90;;;13.30;;
10479;SDS011;12789;42.610;23.040;2023-02-15T10:37:09;19.33;;;13.83;;
10479;SDS011;12789;42.610;23.040;2023-02-15T10:39:41;16.73;;;12.77;;
10479;SDS011;12789;42.610;23.040;2023-02-15T10:42:11;23.23;;;15.67;;
10479;SDS011;12789;42.610;23.040;2023-02-15T10:44:44;17.60;;;13.73;;
10479;SDS011;12789;42.610;23.040;2023-02-15T10:47:27;20.00;;;15.00;;
10479;SDS011;12789;42.610;23.040;2023-02-15T10:50:06;20.47;;;12.83;;
10479;SDS011;12789;42.610;23.040;2023-02-15T10:52:42;18.57;;;14.47;;
10479;SDS011;12789;42.610;23.040;2023-02-15T10:55:20;18.07;;;14.40;;
10479;SDS011;12789;42.610;23.040;2023-02-15T10:57:51;49.73;;;34.37;;
10479;SDS011;12789;42.610;23.040;2023-02-15T11:00:22;20.63;;;14.20;;
10479;SDS011;12789;42.610;23.040;2023-02-15T11:03:02;20.27;;;14.53;;
10479;SDS011;12789;42.610;23.040;2023-02-15T11:05:37;18.77;;;14.90;;
10479;SDS011;12789;42.610;23.040;2023-02-15T11:08:07;18.40;;;13.70;;
10479;SDS011;12789;42.610;23.040;2023-02-15T11:10:38;16.90;;;14.13;;
10479;SDS011;12789;42.610;23.040;2023-02-15T11:13:09;20.43;;;14.80;;
10479;SDS011;12789;42.610;23.040;2023-02-15T11:15:39;20.83;;;15.60;;
10479;SDS011;12789;42.610;23.040;2023-02-15T11:18:08;22.13;;;14.87;;
10479;SDS011;12789;42.610;23.040;2023-02-15T11:20:38;16.10;;;13.37;;
10479;SDS011;12789;42.610;23.040;2023-02-15T11:23:12;16.90;;;13.37;;
10479;SDS011;12789;42.610;23.040;2023-02-15T11:25:40;20.33;;;14.33;;
10479;SDS011;12789;42.610;23.040;2023-02-15T11:28:10;18.53;;;15.40;;
10479;SDS011;12789;42.610;23.040;2023-02-15T11:30:40;17.10;;;13.00;;
10479;SDS011;12789;42.610;23.040;2023-02-15T11:33:12;17.10;;;13.47;;
10479;SDS011;12789;42.610;23.040;2023-02-15T11:35:46;23.70;;;16.30;;
10479;SDS011;12789;42.610;23.040;2023-02-15T11:38:18;18.07;;;13.50;;
10479;SDS011;12789;42.610;23.040;2023-02-15T11:40:48;19.53;;;14.03;;
10479;SDS011;12789;42.610;23.040;2023-02-15T11:43:20;19.70;;;14.10;;
10479;SDS011;12789;42.610;23.040;2023-02-15T11:46:08;16.13;;;13.40;;
10479;SDS011;12789;42.610;23.040;2023-02-15T11:49:07;17.00;;;13.23;;
10479;SDS011;12789;42.610;23.040;2023-02-15T11:51:52;15.33;;;12.70;;
10479;SDS011;12789;42.610;23.040;2023-02-15T11:54:34;18.03;;;14.07;;
10479;SDS011;12789;42.610;23.040;2023-02-15T12:00:16;17.60;;;14.17;;
10479;SDS011;12789;42.610;23.040;2023-02-15T12:02:50;23.03;;;14.80;;
10479;SDS011;12789;42.610;23.040;2023-02-15T12:13:53;17.07;;;13.80;;
10479;SDS011;12789;42.610;23.040;2023-02-15T12:16:21;19.00;;;14.83;;
10479;SDS011;12789;42.610;23.040;2023-02-15T12:18:48;15.63;;;13.77;;
10479;SDS011;12789;42.610;23.040;2023-02-15T12:21:15;18.50;;;14.88;;
10479;SDS011;12789;42.610;23.040;2023-02-15T12:23:46;20.23;;;15.20;;
10479;SDS011;12789;42.610;23.040;2023-02-15T12:26:15;19.50;;;14.13;;
10479;SDS011;12789;42.610;23.040;2023-02-15T12:29:06;15.80;;;13.77;;
10479;SDS011;12789;42.610;23.040;2023-02-15T12:31:45;16.67;;;13.80;;
10479;SDS011;12789;42.610;23.040;2023-02-15T12:34:22;19.98;;;13.70;;
10479;SDS011;12789;42.610;23.040;2023-02-15T12:36:49;17.50;;;14.23;;
10479;SDS011;12789;42.610;23.040;2023-02-15T12:39:23;15.15;;;13.57;;
10479;SDS011;12789;42.610;23.040;2023-02-15T12:42:00;16.50;;;13.40;;
10479;SDS011;12789;42.610;23.040;2023-02-15T12:44:32;29.17;;;15.23;;
10479;SDS011;12789;42.610;23.040;2023-02-15T12:47:00;20.90;;;13.98;;
10479;SDS011;12789;42.610;23.040;2023-02-15T12:49:27;16.95;;;13.32;;
10479;SDS011;12789;42.610;23.040;2023-02-15T12:51:56;16.65;;;13.63;;
10479;SDS011;12789;42.610;23.040;2023-02-15T12:54:34;16.77;;;13.48;;
10479;SDS011;12789;42.610;23.040;2023-02-15T12:57:22;15.55;;;13.95;;
10479;SDS011;12789;42.610;23.040;2023-02-15T12:59:52;19.15;;;15.27;;
10479;SDS011;12789;42.610;23.040;2023-02-15T13:02:23;19.48;;;13.73;;
10479;SDS011;12789;42.610;23.040;2023-02-15T13:04:51;14.98;;;12.98;;
10479;SDS011;12789;42.610;23.040;2023-02-15T13:07:18;13.40;;;12.00;;
10479;SDS011;12789;42.610;23.040;2023-02-15T13:09:47;14.70;;;11.70;;
10479;SDS011;12789;42.610;23.040;2023-02-15T13:12:18;16.73;;;12.35;;
10479;SDS011;12789;42.610;23.040;2023-02-15T13:14:50;15.80;;;13.52;;
10479;SDS011;12789;42.610;23.040;2023-02-15T13:17:21;21.98;;;13.50;;
10479;SDS011;12789;42.610;23.040;2023-02-15T13:19:52;18.88;;;13.55;;
10479;SDS011;12789;42.610;23.040;2023-02-15T13:22:20;15.65;;;13.27;;
10479;SDS011;12789;42.610;23.040;2023-02-15T13:25:01;16.92;;;13.38;;
10479;SDS011;12789;42.610;23.040;2023-02-15T13:27:41;18.75;;;13.63;;
10479;SDS011;12789;42.610;23.040;2023-02-15T13:46:03;19.07;;;15.13;;
10479;SDS011;12789;42.610;23.040;2023-02-15T13:51:15;34.97;;;25.00;;
10479;SDS011;12789;42.610;23.040;2023-02-15T13:56:58;20.40;;;15.97;;
10479;SDS011;12789;42.610;23.040;2023-02-15T14:21:17;20.30;;;14.13;;
10479;SDS011;12789;42.610;23.040;2023-02-15T14:29:38;22.10;;;15.20;;
10479;SDS011;12789;42.610;23.040;2023-02-15T14:32:34;18.63;;;14.83;;
10479;SDS011;12789;42.610;23.040;2023-02-15T14:35:27;20.67;;;16.83;;
10479;SDS011;12789;42.610;23.040;2023-02-15T14:50:14;21.17;;;16.57;;
10479;SDS011;12789;42.610;23.040;2023-02-15T14:53:16;20.67;;;16.20;;
10479;SDS011;12789;42.610;23.040;2023-02-15T15:05:02;29.03;;;21.53;;
10479;SDS011;12789;42.610;23.040;2023-02-15T15:07:37;25.63;;;20.47;;
10479;SDS011;12789;42.610;23.040;2023-02-15T15:10:06;22.37;;;17.20;;
10479;SDS011;12789;42.610;23.040;2023-02-15T15:12:41;26.37;;;19.17;;
10479;SDS011;12789;42.610;23.040;2023-02-15T15:15:13;27.87;;;21.23;;
10479;SDS011;12789;42.610;23.040;2023-02-15T15:20:42;24.80;;;19.70;;
10479;SDS011;12789;42.610;23.040;2023-02-15T15:26:19;33.37;;;21.87;;
10479;SDS011;12789;42.610;23.040;2023-02-15T15:29:04;26.57;;;18.40;;
10479;SDS011;12789;42.610;23.040;2023-02-15T15:34:17;27.03;;;20.93;;
10479;SDS011;12789;42.610;23.040;2023-02-15T15:42:42;30.17;;;20.67;;
10479;SDS011;12789;42.610;23.040;2023-02-15T15:45:23;25.93;;;17.53;;
10479;SDS011;12789;42.610;23.040;2023-02-15T15:47:56;26.97;;;18.37;;
10479;SDS011;12789;42.610;23.040;2023-02-15T15:50:28;25.77;;;18.60;;
10479;SDS011;12789;42.610;23.040;2023-02-15T15:52:59;30.67;;;19.83;;
10479;SDS011;12789;42.610;23.040;2023-02-15T15:55:27;26.87;;;19.17;;
10479;SDS011;12789;42.610;23.040;2023-02-15T15:57:57;30.33;;;19.37;;
10479;SDS011;12789;42.610;23.040;2023-02-15T16:00:28;26.33;;;19.83;;
10479;SDS011;12789;42.610;23.040;2023-02-15T16:02:57;32.70;;;19.10;;
10479;SDS011;12789;42.610;23.040;2023-02-15T16:05:23;35.03;;;21.17;;
10479;SDS011;12789;42.610;23.040;2023-02-15T16:07:52;57.53;;;31.27;;
10479;SDS011;12789;42.610;23.040;2023-02-15T16:10:21;109.80;;;51.73;;
10479;SDS011;12789;42.610;23.040;2023-02-15T16:12:48;79.40;;;40.43;;
10479;SDS011;12789;42.610;23.040;2023-02-15T16:15:17;150.60;;;67.13;;
10479;SDS011;12789;42.610;23.040;2023-02-15T16:17:44;151.97;;;68.10;;
10479;SDS011;12789;42.610;23.040;2023-02-15T16:20:14;137.73;;;63.50;;